createdAt,value
2019-01-25T00:00:55.598Z,0
2019-01-25T00:01:56.190Z,0
2019-01-25T00:02:56.774Z,0
2019-01-25T00:03:57.359Z,0
2019-01-25T00:04:57.952Z,0
2019-01-25T00:05:58.538Z,0
2019-01-25T00:06:59.130Z,0
2019-01-25T00:07:59.715Z,0
2019-01-25T00:09:00.300Z,0
2019-01-25T00:10:00.895Z,0
2019-01-25T00:11:01.490Z,0
2019-01-25T00:12:02.080Z,0
2019-01-25T00:13:02.673Z,0
2019-01-25T00:14:03.256Z,0
2019-01-25T00:15:03.843Z,0
2019-01-25T00:16:04.433Z,0
2019-01-25T00:17:05.029Z,0
2019-01-25T00:18:05.604Z,0
2019-01-25T00:19:06.199Z,0
2019-01-25T00:20:06.863Z,0
2019-01-25T00:21:07.372Z,0
2019-01-25T00:22:07.966Z,0
2019-01-25T00:23:08.557Z,0
2019-01-25T00:24:09.153Z,0
2019-01-25T00:25:09.744Z,0
2019-01-25T00:26:10.338Z,0
2019-01-25T00:27:10.930Z,0
2019-01-25T00:28:11.512Z,0
2019-01-25T00:29:12.095Z,0
2019-01-25T00:30:12.690Z,0
2019-01-25T00:31:13.279Z,0
2019-01-25T00:32:13.869Z,0
2019-01-25T00:33:14.450Z,0
2019-01-25T00:34:15.035Z,0
2019-01-25T00:35:15.625Z,0
2019-01-25T00:36:16.270Z,0
2019-01-25T00:37:16.809Z,0
2019-01-25T00:38:17.404Z,0
2019-01-25T00:39:17.992Z,0
2019-01-25T00:40:18.583Z,0
2019-01-25T00:41:19.180Z,0
2019-01-25T00:42:19.762Z,0
2019-01-25T00:43:20.348Z,0
2019-01-25T00:44:20.938Z,0
2019-01-25T00:45:21.530Z,0
2019-01-25T00:46:22.122Z,0
2019-01-25T00:47:22.705Z,0
2019-01-25T00:48:23.300Z,0
2019-01-25T00:49:23.885Z,0
2019-01-25T00:50:24.467Z,0
2019-01-25T00:51:25.053Z,0
2019-01-25T00:52:25.637Z,0
2019-01-25T00:53:26.231Z,0
2019-01-25T00:54:26.825Z,0
2019-01-25T00:55:27.413Z,0
2019-01-25T00:56:28.005Z,0
2019-01-25T00:57:28.592Z,0
2019-01-25T00:58:29.179Z,0
2019-01-25T00:59:29.766Z,0
2019-01-25T01:01:14.566Z,0
2019-01-25T01:02:15.162Z,0
2019-01-25T01:03:15.741Z,0
2019-01-25T01:04:16.334Z,0
2019-01-25T01:05:16.927Z,0
2019-01-25T01:06:17.519Z,0
2019-01-25T01:07:18.105Z,0
2019-01-25T01:08:18.698Z,0
2019-01-25T01:09:19.285Z,0
2019-01-25T01:10:19.877Z,0
2019-01-25T01:11:20.471Z,0
2019-01-25T01:12:21.062Z,0
2019-01-25T01:13:21.648Z,0
2019-01-25T01:14:22.234Z,0
2019-01-25T01:15:22.822Z,0
2019-01-25T01:16:23.407Z,0
2019-01-25T01:17:24.006Z,0
2019-01-25T01:18:24.598Z,0
2019-01-25T01:19:25.198Z,0
2019-01-25T01:20:25.792Z,0
2019-01-25T01:21:26.375Z,0
2019-01-25T01:22:26.970Z,0
2019-01-25T01:23:27.560Z,0
2019-01-25T01:24:28.152Z,0
2019-01-25T01:25:28.738Z,0
2019-01-25T01:26:29.338Z,0
2019-01-25T01:27:29.918Z,0
2019-01-25T01:28:30.499Z,0
2019-01-25T01:29:31.090Z,0
2019-01-25T01:30:31.678Z,0
2019-01-25T01:31:32.272Z,0
2019-01-25T01:32:32.866Z,0
2019-01-25T01:33:33.448Z,0
2019-01-25T01:34:34.032Z,0
2019-01-25T01:35:34.617Z,0
2019-01-25T01:36:35.213Z,0
2019-01-25T01:37:35.803Z,0
2019-01-25T01:38:36.394Z,0
2019-01-25T01:39:36.996Z,0
2019-01-25T01:40:37.582Z,0
2019-01-25T01:41:38.166Z,0
2019-01-25T01:42:38.757Z,0
2019-01-25T01:43:39.349Z,0
2019-01-25T01:44:39.939Z,0
2019-01-25T01:45:40.524Z,0
2019-01-25T01:46:41.111Z,0
2019-01-25T01:47:41.704Z,0
2019-01-25T01:48:42.285Z,0
2019-01-25T01:49:42.889Z,0
2019-01-25T01:50:43.472Z,0
2019-01-25T01:51:44.056Z,0
2019-01-25T01:52:44.643Z,0
2019-01-25T01:53:45.236Z,0
2019-01-25T01:54:45.822Z,0
2019-01-25T01:55:46.410Z,0
2019-01-25T01:56:47.000Z,0
2019-01-25T01:57:47.593Z,0
2019-01-25T01:58:48.188Z,0
2019-01-25T01:59:48.770Z,0
2019-01-25T02:00:49.361Z,0
2019-01-25T02:01:49.956Z,0
2019-01-25T02:02:50.547Z,0
2019-01-25T02:03:51.129Z,0
2019-01-25T02:04:51.727Z,0
2019-01-25T02:05:52.322Z,0
2019-01-25T02:06:52.900Z,0
2019-01-25T02:07:53.486Z,0
2019-01-25T02:08:54.078Z,0
2019-01-25T02:09:54.662Z,0
2019-01-25T02:10:55.248Z,0
2019-01-25T02:11:55.835Z,0
2019-01-25T02:12:56.427Z,0
2019-01-25T02:13:57.018Z,0
2019-01-25T02:14:57.613Z,0
2019-01-25T02:15:58.196Z,0
2019-01-25T02:16:58.786Z,0
2019-01-25T02:17:59.369Z,0
2019-01-25T02:18:59.964Z,0
2019-01-25T02:20:00.555Z,0
2019-01-25T02:21:01.161Z,0
2019-01-25T02:22:01.743Z,0
2019-01-25T02:23:02.337Z,0
2019-01-25T02:24:02.932Z,0
2019-01-25T02:25:03.512Z,0
2019-01-25T02:26:04.094Z,0
2019-01-25T02:27:04.684Z,0
2019-01-25T02:28:05.276Z,0
2019-01-25T02:29:05.867Z,0
2019-01-25T02:30:06.462Z,0
2019-01-25T02:31:07.047Z,0
2019-01-25T02:32:07.641Z,0
2019-01-25T02:33:08.235Z,0
2019-01-25T02:34:08.824Z,0
2019-01-25T02:35:09.414Z,0
2019-01-25T02:36:09.999Z,0
2019-01-25T02:37:10.584Z,0
2019-01-25T02:38:11.180Z,0
2019-01-25T02:39:11.771Z,0
2019-01-25T02:40:12.370Z,0
2019-01-25T02:41:12.962Z,0
2019-01-25T02:42:13.553Z,0
2019-01-25T02:43:14.149Z,0
2019-01-25T02:44:14.736Z,0
2019-01-25T02:45:15.330Z,0
2019-01-25T02:46:15.914Z,0
2019-01-25T02:47:16.502Z,0
2019-01-25T02:48:17.097Z,0
2019-01-25T02:49:17.699Z,0
2019-01-25T02:50:18.281Z,0
2019-01-25T02:51:18.873Z,0
2019-01-25T02:52:19.467Z,0
2019-01-25T02:53:20.064Z,0
2019-01-25T02:54:20.655Z,0
2019-01-25T02:55:21.243Z,0
2019-01-25T02:56:21.839Z,0
2019-01-25T02:57:22.464Z,0
2019-01-25T02:58:23.022Z,0
2019-01-25T02:59:23.621Z,0
2019-01-25T03:00:24.233Z,0
2019-01-25T03:01:24.819Z,0
2019-01-25T03:02:25.388Z,0
2019-01-25T03:03:25.983Z,0
2019-01-25T03:04:26.569Z,0
2019-01-25T03:05:27.160Z,0
2019-01-25T03:06:27.752Z,0
2019-01-25T03:07:28.351Z,0
2019-01-25T03:08:28.934Z,0
2019-01-25T03:09:29.529Z,0
2019-01-25T03:10:30.129Z,0
2019-01-25T03:11:30.698Z,0
2019-01-25T03:12:31.296Z,0
2019-01-25T03:13:31.877Z,0
2019-01-25T03:14:32.472Z,0
2019-01-25T03:15:33.054Z,0
2019-01-25T03:16:33.648Z,0
2019-01-25T03:17:34.241Z,0
2019-01-25T03:18:34.831Z,0
2019-01-25T03:19:35.425Z,0
2019-01-25T03:20:36.018Z,0
2019-01-25T03:21:36.601Z,0
2019-01-25T03:22:37.189Z,0
2019-01-25T03:23:37.773Z,0
2019-01-25T03:24:38.361Z,0
2019-01-25T03:25:38.953Z,0
2019-01-25T03:26:39.537Z,0
2019-01-25T03:27:40.132Z,0
2019-01-25T03:28:40.727Z,0
2019-01-25T03:29:41.323Z,0
2019-01-25T03:30:41.915Z,0
2019-01-25T03:31:42.511Z,0
2019-01-25T03:32:43.101Z,0
2019-01-25T03:33:43.693Z,0
2019-01-25T03:34:44.289Z,0
2019-01-25T03:35:44.879Z,0
2019-01-25T03:36:45.471Z,0
2019-01-25T03:37:46.057Z,0
2019-01-25T03:38:46.659Z,0
2019-01-25T03:39:47.246Z,0
2019-01-25T03:40:54.750Z,0
2019-01-25T03:41:48.415Z,0
2019-01-25T03:42:49.000Z,0
2019-01-25T03:43:49.598Z,0
2019-01-25T03:44:50.187Z,0
2019-01-25T03:45:50.774Z,0
2019-01-25T03:46:51.367Z,0
2019-01-25T03:47:51.976Z,0
2019-01-25T03:48:52.553Z,0
2019-01-25T03:49:53.153Z,0
2019-01-25T03:50:53.739Z,0
2019-01-25T03:51:54.332Z,0
2019-01-25T03:52:54.953Z,0
2019-01-25T03:53:55.522Z,0
2019-01-25T03:54:56.118Z,0
2019-01-25T03:55:56.703Z,0
2019-01-25T03:56:57.288Z,0
2019-01-25T03:57:57.935Z,0
2019-01-25T03:58:58.498Z,0
2019-01-25T03:59:59.066Z,0
2019-01-25T04:00:59.653Z,0
2019-01-25T04:02:00.240Z,0
2019-01-25T04:03:00.832Z,0
2019-01-25T04:04:01.522Z,0
2019-01-25T04:05:02.035Z,0
2019-01-25T04:06:02.609Z,0
2019-01-25T04:07:03.196Z,0
2019-01-25T04:08:03.792Z,0
2019-01-25T04:09:04.382Z,0
2019-01-25T04:10:04.976Z,0
2019-01-25T04:11:05.589Z,0
2019-01-25T04:12:06.170Z,0
2019-01-25T04:13:06.756Z,0
2019-01-25T04:14:07.348Z,0
2019-01-25T04:15:07.935Z,0
2019-01-25T04:16:08.528Z,0
2019-01-25T04:17:09.111Z,0
2019-01-25T04:18:09.709Z,0
2019-01-25T04:19:10.299Z,0
2019-01-25T04:20:10.884Z,0
2019-01-25T04:21:11.470Z,0
2019-01-25T04:22:12.053Z,0
2019-01-25T04:23:12.647Z,0
2019-01-25T04:24:13.233Z,0
2019-01-25T04:25:13.827Z,0
2019-01-25T04:26:14.418Z,0
2019-01-25T04:27:14.998Z,0
2019-01-25T04:28:15.596Z,0
2019-01-25T04:29:16.178Z,0
2019-01-25T04:30:16.762Z,0
2019-01-25T04:31:17.360Z,0
2019-01-25T04:32:17.948Z,0
2019-01-25T04:33:18.544Z,0
2019-01-25T04:34:19.140Z,0
2019-01-25T04:35:19.719Z,0
2019-01-25T04:36:20.310Z,0
2019-01-25T04:37:20.902Z,0
2019-01-25T04:38:21.502Z,0
2019-01-25T04:39:22.094Z,0
2019-01-25T04:40:22.688Z,0
2019-01-25T04:41:23.293Z,0
2019-01-25T04:42:23.874Z,0
2019-01-25T04:43:25.785Z,0
2019-01-25T04:44:25.049Z,0
2019-01-25T04:45:25.635Z,0
2019-01-25T04:46:26.233Z,0
2019-01-25T04:47:26.825Z,0
2019-01-25T04:48:27.408Z,0
2019-01-25T04:49:27.994Z,0
2019-01-25T04:50:28.588Z,0
2019-01-25T04:51:29.191Z,0
2019-01-25T04:52:29.767Z,0
2019-01-25T04:53:30.360Z,0
2019-01-25T04:54:30.947Z,0
2019-01-25T04:55:31.537Z,0
2019-01-25T04:56:32.119Z,0
2019-01-25T04:57:32.713Z,0
2019-01-25T04:58:33.301Z,0
2019-01-25T04:59:33.891Z,0
2019-01-25T05:00:34.505Z,0
2019-01-25T05:01:35.069Z,0
2019-01-25T05:02:35.689Z,0
2019-01-25T05:03:36.254Z,0
2019-01-25T05:04:36.849Z,0
2019-01-25T05:05:37.442Z,0
2019-01-25T05:06:38.030Z,0
2019-01-25T05:07:38.622Z,0
2019-01-25T05:08:39.213Z,0
2019-01-25T05:09:39.809Z,0
2019-01-25T05:10:40.393Z,0
2019-01-25T05:11:40.979Z,0
2019-01-25T05:12:41.578Z,0
2019-01-25T05:13:42.163Z,0
2019-01-25T05:14:42.750Z,0
2019-01-25T05:15:43.355Z,0
2019-01-25T05:16:43.937Z,0
2019-01-25T05:17:44.535Z,0
2019-01-25T05:18:45.125Z,0
2019-01-25T05:19:45.722Z,0
2019-01-25T05:20:46.312Z,0
2019-01-25T05:21:46.903Z,0
2019-01-25T05:22:47.495Z,0
2019-01-25T05:23:48.087Z,0
2019-01-25T05:24:48.681Z,0
2019-01-25T05:25:49.263Z,0
2019-01-25T05:26:49.861Z,0
2019-01-25T05:27:50.442Z,0
2019-01-25T05:28:51.044Z,0
2019-01-25T05:29:51.630Z,0
2019-01-25T05:30:52.224Z,0
2019-01-25T05:31:52.817Z,0
2019-01-25T05:32:53.403Z,0
2019-01-25T05:33:54.008Z,0
2019-01-25T05:34:54.582Z,0
2019-01-25T05:35:55.175Z,0
2019-01-25T05:36:55.766Z,0
2019-01-25T05:37:56.356Z,0
2019-01-25T05:38:56.946Z,0
2019-01-25T05:39:57.533Z,0
2019-01-25T05:40:58.126Z,0
2019-01-25T05:41:58.708Z,0
2019-01-25T05:42:59.300Z,0
2019-01-25T05:43:59.899Z,0
2019-01-25T05:45:00.490Z,0
2019-01-25T05:46:01.082Z,0
2019-01-25T05:47:01.674Z,0
2019-01-25T05:48:02.266Z,0
2019-01-25T05:49:02.857Z,0
2019-01-25T05:50:03.447Z,0
2019-01-25T05:51:04.028Z,0
2019-01-25T05:52:04.678Z,0
2019-01-25T05:53:05.216Z,0
2019-01-25T05:54:05.808Z,0
2019-01-25T05:55:06.404Z,0
2019-01-25T05:56:06.987Z,0
2019-01-25T05:57:07.586Z,0
2019-01-25T05:58:08.182Z,0
2019-01-25T05:59:08.777Z,0
2019-01-25T06:00:09.370Z,0
2019-01-25T06:01:09.965Z,0
2019-01-25T06:02:10.554Z,0
2019-01-25T06:03:11.148Z,0
2019-01-25T06:04:11.742Z,0
2019-01-25T06:05:12.336Z,0
2019-01-25T06:06:12.931Z,0
2019-01-25T06:07:13.513Z,0
2019-01-25T06:08:14.106Z,0
2019-01-25T06:09:14.698Z,0
2019-01-25T06:10:15.284Z,0
2019-01-25T06:11:15.872Z,0
2019-01-25T06:12:16.465Z,0
2019-01-25T06:13:17.060Z,0
2019-01-25T06:14:17.655Z,0
2019-01-25T06:15:18.244Z,0
2019-01-25T06:16:18.831Z,0
2019-01-25T06:17:19.428Z,0
2019-01-25T06:18:20.018Z,0
2019-01-25T06:19:20.620Z,0
2019-01-25T06:20:21.214Z,0
2019-01-25T06:21:21.821Z,0
2019-01-25T06:22:22.398Z,0
2019-01-25T06:23:22.990Z,0
2019-01-25T06:24:23.583Z,0
2019-01-25T06:25:24.186Z,0
2019-01-25T06:26:24.775Z,0
2019-01-25T06:27:25.367Z,0
2019-01-25T06:28:25.953Z,0
2019-01-25T06:29:26.563Z,0
2019-01-25T06:30:27.146Z,0
2019-01-25T06:31:27.746Z,0
2019-01-25T06:32:28.333Z,0
2019-01-25T06:33:28.924Z,0
2019-01-25T06:34:29.514Z,0
2019-01-25T06:35:30.107Z,0
2019-01-25T06:36:30.699Z,0
2019-01-25T06:37:31.287Z,0
2019-01-25T06:38:31.881Z,0
2019-01-25T06:39:32.474Z,0
2019-01-25T06:40:33.069Z,0
2019-01-25T06:41:33.661Z,0
2019-01-25T06:42:34.705Z,0
2019-01-25T06:43:35.300Z,0
2019-01-25T06:44:35.892Z,0
2019-01-25T06:45:36.552Z,0
2019-01-25T06:46:37.129Z,0
2019-01-25T06:47:37.718Z,0
2019-01-25T06:48:38.314Z,4
2019-01-25T06:49:38.902Z,4
2019-01-25T06:50:39.494Z,0
2019-01-25T06:51:40.083Z,4
2019-01-25T06:52:40.667Z,4
2019-01-25T06:53:41.261Z,4
2019-01-25T06:54:41.848Z,8
2019-01-25T06:55:42.439Z,4
2019-01-25T06:56:43.034Z,4
2019-01-25T06:57:43.665Z,8
2019-01-25T06:58:44.260Z,8
2019-01-25T06:59:44.846Z,8
2019-01-25T07:00:45.432Z,12
2019-01-25T07:01:46.028Z,16
2019-01-25T07:02:46.622Z,20
2019-01-25T07:03:47.214Z,24
2019-01-25T07:04:47.812Z,24
2019-01-25T07:05:48.406Z,28
2019-01-25T07:06:49.008Z,32
2019-01-25T07:07:49.627Z,40
2019-01-25T07:08:50.184Z,48
2019-01-25T07:09:50.771Z,48
2019-01-25T07:10:51.356Z,60
2019-01-25T07:11:52.066Z,72
2019-01-25T07:12:52.607Z,72
2019-01-25T07:13:53.204Z,84
2019-01-25T07:14:53.797Z,92
2019-01-25T07:15:54.392Z,100
2019-01-25T07:16:54.980Z,116
2019-01-25T07:17:55.568Z,120
2019-01-25T07:18:56.163Z,132
2019-01-25T07:19:56.749Z,140
2019-01-25T07:20:57.335Z,152
2019-01-25T07:21:57.924Z,168
2019-01-25T07:22:58.518Z,176
2019-01-25T07:23:59.102Z,192
2019-01-25T07:24:59.702Z,204
2019-01-25T07:26:00.296Z,212
2019-01-25T07:27:00.891Z,248
2019-01-25T07:28:01.488Z,268
2019-01-25T07:29:02.108Z,276
2019-01-25T07:30:02.717Z,304
2019-01-25T07:31:03.546Z,332
2019-01-25T07:32:03.881Z,352
2019-01-25T07:33:04.487Z,360
2019-01-25T07:34:05.087Z,364
2019-01-25T07:35:05.662Z,380
2019-01-25T07:36:06.259Z,428
2019-01-25T07:37:06.855Z,488
2019-01-25T07:38:07.448Z,552
2019-01-25T07:39:08.047Z,628
2019-01-25T07:40:08.647Z,656
2019-01-25T07:41:09.241Z,688
2019-01-25T07:42:09.831Z,700
2019-01-25T07:43:10.447Z,744
2019-01-25T07:44:11.037Z,788
2019-01-25T07:45:11.622Z,804
2019-01-25T07:46:12.221Z,844
2019-01-25T07:47:12.804Z,936
2019-01-25T07:48:13.405Z,1016
2019-01-25T07:49:13.988Z,1040
2019-01-25T07:50:14.578Z,1056
2019-01-25T07:51:15.190Z,1052
2019-01-25T07:52:15.766Z,1020
2019-01-25T07:53:16.356Z,1012
2019-01-25T07:54:16.956Z,1084
2019-01-25T07:55:17.554Z,1152
2019-01-25T07:56:18.150Z,1156
2019-01-25T07:57:18.760Z,1272
2019-01-25T07:58:19.374Z,1264
2019-01-25T07:59:19.976Z,1188
2019-01-25T08:00:20.542Z,1164
2019-01-25T08:01:21.129Z,1192
2019-01-25T08:02:21.729Z,1164
2019-01-25T08:03:22.324Z,1228
2019-01-25T08:04:22.929Z,1312
2019-01-25T08:05:23.520Z,1276
2019-01-25T08:06:24.124Z,1168
2019-01-25T08:07:24.817Z,1160
2019-01-25T08:08:25.305Z,1244
2019-01-25T08:09:25.953Z,1292
2019-01-25T08:10:26.505Z,1300
2019-01-25T08:11:27.103Z,1388
2019-01-25T08:12:27.692Z,1520
2019-01-25T08:13:28.287Z,1604
2019-01-25T08:14:28.873Z,1720
2019-01-25T08:15:29.468Z,2072
2019-01-25T08:16:30.059Z,2476
2019-01-25T08:17:30.654Z,2476
2019-01-25T08:18:31.242Z,2492
2019-01-25T08:19:31.997Z,2752
2019-01-25T08:20:32.437Z,3044
2019-01-25T08:21:33.033Z,3272
2019-01-25T08:22:33.623Z,3284
2019-01-25T08:23:34.214Z,3500
2019-01-25T08:24:34.817Z,3640
2019-01-25T08:25:35.605Z,3940
2019-01-25T08:26:36.218Z,4264
2019-01-25T08:27:36.613Z,4520
2019-01-25T08:28:37.198Z,4660
2019-01-25T08:29:37.798Z,4984
2019-01-25T08:30:38.383Z,5420
2019-01-25T08:31:38.989Z,5596
2019-01-25T08:32:39.577Z,5672
2019-01-25T08:33:40.175Z,5124
2019-01-25T08:34:40.779Z,4952
2019-01-25T08:35:41.401Z,5152
2019-01-25T08:36:41.971Z,5420
2019-01-25T08:37:42.561Z,5708
2019-01-25T08:38:43.152Z,6096
2019-01-25T08:39:43.751Z,6676
2019-01-25T08:40:44.369Z,7116
2019-01-25T08:41:45.213Z,7112
2019-01-25T08:42:45.675Z,7140
2019-01-25T08:43:46.132Z,7120
2019-01-25T08:44:46.745Z,7144
2019-01-25T08:45:49.278Z,7188
2019-01-25T08:46:48.922Z,7204
2019-01-25T08:47:49.495Z,7056
2019-01-25T08:48:50.095Z,7128
2019-01-25T08:49:57.628Z,7340
2019-01-25T08:50:51.304Z,7508
2019-01-25T08:51:51.936Z,7636
2019-01-25T08:52:52.597Z,7716
2019-01-25T08:53:53.155Z,7856
2019-01-25T08:54:53.689Z,7732
2019-01-25T08:55:54.288Z,7600
2019-01-25T08:56:54.880Z,7700
2019-01-25T08:57:55.476Z,8032
2019-01-25T08:58:56.100Z,8104
2019-01-25T08:59:56.671Z,8008
2019-01-25T09:00:57.267Z,8052
2019-01-25T09:01:57.867Z,8192
2019-01-25T09:02:58.466Z,8272
2019-01-25T09:03:59.062Z,8468
2019-01-25T09:04:59.660Z,8556
2019-01-25T09:06:00.253Z,8712
2019-01-25T09:07:00.852Z,8748
2019-01-25T09:08:01.457Z,8860
2019-01-25T09:09:02.053Z,9136
2019-01-25T09:10:02.652Z,9320
2019-01-25T09:11:03.244Z,9132
2019-01-25T09:12:03.841Z,8856
2019-01-25T09:13:04.463Z,8856
2019-01-25T09:14:05.046Z,9100
2019-01-25T09:15:05.645Z,9088
2019-01-25T09:16:06.265Z,8952
2019-01-25T09:17:06.857Z,8980
2019-01-25T09:18:07.472Z,9116
2019-01-25T09:19:08.050Z,9364
2019-01-25T09:20:14.407Z,9696
2019-01-25T09:21:09.249Z,10188
2019-01-25T09:22:09.850Z,10848
2019-01-25T09:23:10.445Z,11400
2019-01-25T09:24:11.047Z,11660
2019-01-25T09:25:11.650Z,11644
2019-01-25T09:26:12.251Z,11812
2019-01-25T09:27:12.860Z,11824
2019-01-25T09:28:13.455Z,11312
2019-01-25T09:29:14.108Z,10476
2019-01-25T09:30:14.708Z,9592
2019-01-25T09:31:15.307Z,8784
2019-01-25T09:32:15.908Z,8136
2019-01-25T09:33:16.501Z,7556
2019-01-25T09:34:17.102Z,6736
2019-01-25T09:35:17.695Z,6188
2019-01-25T09:36:18.297Z,5908
2019-01-25T09:37:18.897Z,5616
2019-01-25T09:38:19.497Z,5532
2019-01-25T09:39:20.096Z,5228
2019-01-25T09:40:20.693Z,4840
2019-01-25T09:41:21.284Z,4688
2019-01-25T09:42:21.885Z,4892
2019-01-25T09:43:22.482Z,5536
2019-01-25T09:44:23.099Z,5400
2019-01-25T09:45:23.682Z,6568
2019-01-25T09:46:24.284Z,8060
2019-01-25T09:47:24.885Z,8844
2019-01-25T09:48:25.487Z,9540
2019-01-25T09:49:26.088Z,9752
2019-01-25T09:50:26.688Z,9188
2019-01-25T09:51:27.289Z,9724
2019-01-25T09:52:27.890Z,10420
2019-01-25T09:53:28.496Z,10836
2019-01-25T09:54:29.117Z,11468
2019-01-25T09:55:29.698Z,12368
2019-01-25T09:56:30.295Z,11860
2019-01-25T09:57:30.891Z,12668
2019-01-25T09:58:31.491Z,12984
2019-01-25T09:59:32.085Z,12944
2019-01-25T10:00:32.688Z,12272
2019-01-25T10:01:33.289Z,11760
2019-01-25T10:02:33.897Z,12592
2019-01-25T10:03:34.493Z,13208
2019-01-25T10:04:35.094Z,13472
2019-01-25T10:05:35.699Z,13408
2019-01-25T10:06:36.293Z,12532
2019-01-25T10:07:36.894Z,12908
2019-01-25T10:08:37.497Z,12636
2019-01-25T10:09:38.101Z,12692
2019-01-25T10:10:38.707Z,13048
2019-01-25T10:11:39.307Z,12752
2019-01-25T10:12:43.389Z,12920
2019-01-25T10:13:40.526Z,11432
2019-01-25T10:14:41.105Z,10748
2019-01-25T10:15:41.701Z,12120
2019-01-25T10:16:42.301Z,11984
2019-01-25T10:17:42.897Z,11344
2019-01-25T10:18:43.494Z,12272
2019-01-25T10:19:44.092Z,13736
2019-01-25T10:20:44.702Z,13872
2019-01-25T10:21:45.293Z,13240
2019-01-25T10:22:45.898Z,13200
2019-01-25T10:23:46.502Z,13224
2019-01-25T10:24:47.093Z,12660
2019-01-25T10:25:47.696Z,11716
2019-01-25T10:26:48.298Z,12492
2019-01-25T10:27:48.891Z,12816
2019-01-25T10:28:49.500Z,13408
2019-01-25T10:29:50.094Z,13312
2019-01-25T10:30:50.698Z,12724
2019-01-25T10:31:51.301Z,10972
2019-01-25T10:32:51.891Z,11756
2019-01-25T10:33:52.487Z,12940
2019-01-25T10:34:53.091Z,14264
2019-01-25T10:35:53.700Z,15392
2019-01-25T10:36:54.303Z,13928
2019-01-25T10:37:54.907Z,14076
2019-01-25T10:38:55.529Z,14904
2019-01-25T10:39:56.110Z,14752
2019-01-25T10:40:56.712Z,15944
2019-01-25T10:41:57.307Z,15880
2019-01-25T10:42:57.919Z,15372
2019-01-25T10:43:58.548Z,14328
2019-01-25T10:45:04.276Z,13748
2019-01-25T10:45:59.747Z,13404
2019-01-25T10:47:00.340Z,13132
2019-01-25T10:48:00.938Z,13200
2019-01-25T10:49:01.545Z,13060
2019-01-25T10:50:02.151Z,13460
2019-01-25T10:51:02.743Z,13632
2019-01-25T10:52:03.341Z,13860
2019-01-25T10:53:03.941Z,14232
2019-01-25T10:54:04.549Z,14440
2019-01-25T10:55:05.150Z,15028
2019-01-25T10:56:05.759Z,15300
2019-01-25T10:57:06.367Z,15472
2019-01-25T10:58:06.984Z,15172
2019-01-25T10:59:07.591Z,15620
2019-01-25T11:00:08.197Z,15792
2019-01-25T11:01:08.809Z,15588
2019-01-25T11:02:09.404Z,15296
2019-01-25T11:03:10.017Z,15288
2019-01-25T11:04:11.717Z,15260
2019-01-25T11:05:11.222Z,15116
2019-01-25T11:06:11.848Z,15228
2019-01-25T11:07:12.431Z,15084
2019-01-25T11:08:13.032Z,15284
2019-01-25T11:09:13.640Z,15720
2019-01-25T11:10:14.241Z,15984
2019-01-25T11:11:14.850Z,15296
2019-01-25T11:12:15.448Z,14056
2019-01-25T11:13:16.051Z,12312
2019-01-25T11:14:16.663Z,12228
2019-01-25T11:15:17.268Z,13052
2019-01-25T11:16:17.873Z,12692
2019-01-25T11:17:18.472Z,11148
2019-01-25T11:18:19.083Z,12592
2019-01-25T11:19:19.688Z,13736
2019-01-25T11:20:20.300Z,14236
2019-01-25T11:21:20.913Z,14644
2019-01-25T11:22:21.553Z,14232
2019-01-25T11:23:22.131Z,14632
2019-01-25T11:24:22.740Z,14000
2019-01-25T11:25:23.361Z,13236
2019-01-25T11:26:23.961Z,11008
2019-01-25T11:27:24.571Z,13264
2019-01-25T11:28:25.179Z,12292
2019-01-25T11:29:25.789Z,12332
2019-01-25T11:30:26.394Z,12628
2019-01-25T11:31:27.003Z,14812
2019-01-25T11:32:27.605Z,13664
2019-01-25T11:33:28.207Z,13728
2019-01-25T11:34:33.030Z,14644
2019-01-25T11:35:30.413Z,14896
2019-01-25T11:36:31.025Z,14512
2019-01-25T11:37:31.626Z,14900
2019-01-25T11:38:32.241Z,14872
2019-01-25T11:39:32.847Z,16776
2019-01-25T11:40:33.463Z,16864
2019-01-25T11:41:34.063Z,14596
2019-01-25T11:42:34.675Z,13720
2019-01-25T11:43:35.272Z,13588
2019-01-25T11:44:35.882Z,13160
2019-01-25T11:45:36.507Z,12572
2019-01-25T11:46:37.107Z,12372
2019-01-25T11:47:37.708Z,11604
2019-01-25T11:48:38.319Z,10944
2019-01-25T11:49:38.922Z,10976
2019-01-25T11:50:39.526Z,12804
2019-01-25T11:51:40.134Z,13004
2019-01-25T11:52:40.744Z,12048
2019-01-25T11:53:41.349Z,12156
2019-01-25T11:54:41.949Z,12532
2019-01-25T11:55:42.569Z,14784
2019-01-25T11:56:43.169Z,17136
2019-01-25T11:57:43.807Z,19328
2019-01-25T11:58:44.383Z,20928
2019-01-25T11:59:44.980Z,21920
2019-01-25T12:00:45.600Z,22400
2019-01-25T12:01:46.196Z,19936
2019-01-25T12:02:46.806Z,21920
2019-01-25T12:03:47.427Z,20448
2019-01-25T12:04:48.023Z,16488
2019-01-25T12:05:48.636Z,19584
2019-01-25T12:06:49.242Z,21120
2019-01-25T12:07:49.855Z,20960
2019-01-25T12:08:50.451Z,22048
2019-01-25T12:09:51.064Z,21664
2019-01-25T12:10:51.678Z,20800
2019-01-25T12:11:52.279Z,20992
2019-01-25T12:12:52.890Z,22304
2019-01-25T12:13:53.501Z,21824
2019-01-25T12:14:54.102Z,20544
2019-01-25T12:15:54.718Z,19328
2019-01-25T12:16:55.328Z,20640
2019-01-25T12:17:55.935Z,18880
2019-01-25T12:18:56.535Z,14080
2019-01-25T12:19:57.138Z,14144
2019-01-25T12:20:57.747Z,13740
2019-01-25T12:21:58.344Z,14332
2019-01-25T12:22:58.954Z,12044
2019-01-25T12:23:59.554Z,11588
2019-01-25T12:25:00.238Z,11652
2019-01-25T12:26:00.762Z,11252
2019-01-25T12:27:01.361Z,11592
2019-01-25T12:28:05.389Z,12564
2019-01-25T12:29:02.572Z,14528
2019-01-25T12:30:03.172Z,17088
2019-01-25T12:31:03.778Z,16628
2019-01-25T12:32:04.432Z,17000
2019-01-25T12:33:05.041Z,18056
2019-01-25T12:34:05.641Z,18132
2019-01-25T12:35:07.523Z,18332
2019-01-25T12:36:06.857Z,18424
2019-01-25T12:37:07.465Z,19328
2019-01-25T12:38:08.071Z,20480
2019-01-25T12:39:08.679Z,21696
2019-01-25T12:40:09.281Z,22208
2019-01-25T12:41:09.888Z,21568
2019-01-25T12:42:10.499Z,20672
2019-01-25T12:43:11.098Z,19904
2019-01-25T12:44:11.756Z,19232
2019-01-25T12:45:12.415Z,17564
2019-01-25T12:46:13.025Z,16444
2019-01-25T12:47:13.631Z,15812
2019-01-25T12:48:14.234Z,15896
2019-01-25T12:49:14.829Z,16836
2019-01-25T12:50:15.427Z,17860
2019-01-25T12:51:16.037Z,18724
2019-01-25T12:52:16.644Z,19648
2019-01-25T12:53:17.250Z,19648
2019-01-25T12:54:17.857Z,19456
2019-01-25T12:55:18.453Z,20544
2019-01-25T12:57:34.547Z,25056
2019-01-25T12:58:35.171Z,23936
2019-01-25T12:59:35.766Z,21408
2019-01-25T13:00:36.374Z,19296
2019-01-25T13:01:36.980Z,17940
2019-01-25T13:02:37.577Z,17196
2019-01-25T13:03:38.184Z,16860
2019-01-25T13:04:38.782Z,16716
2019-01-25T13:05:39.405Z,16832
2019-01-25T13:06:40.000Z,17200
2019-01-25T13:07:40.609Z,17188
2019-01-25T13:08:41.230Z,16968
2019-01-25T13:09:41.838Z,17132
2019-01-25T13:10:42.437Z,17380
2019-01-25T13:11:43.254Z,17296
2019-01-25T13:12:43.919Z,17124
2019-01-25T13:13:44.512Z,16968
2019-01-25T13:14:45.126Z,16720
2019-01-25T13:15:45.716Z,16512
2019-01-25T13:16:46.322Z,16252
2019-01-25T13:17:46.974Z,16056
2019-01-25T13:18:47.562Z,15916
2019-01-25T13:19:48.148Z,16004
2019-01-25T13:20:48.754Z,16260
2019-01-25T13:21:49.373Z,16420
2019-01-25T13:22:49.978Z,16548
2019-01-25T13:23:50.584Z,16672
2019-01-25T13:24:51.194Z,16628
2019-01-25T13:25:51.799Z,16236
2019-01-25T13:26:52.407Z,15912
2019-01-25T13:27:53.015Z,15604
2019-01-25T13:28:53.617Z,14908
2019-01-25T13:29:54.237Z,13980
2019-01-25T13:30:54.832Z,13116
2019-01-25T13:31:55.506Z,12544
2019-01-25T13:32:56.038Z,12296
2019-01-25T13:33:56.636Z,12260
2019-01-25T13:34:57.233Z,12316
2019-01-25T13:35:57.827Z,12444
2019-01-25T13:36:58.436Z,12332
2019-01-25T13:37:59.040Z,12324
2019-01-25T13:38:59.662Z,12788
2019-01-25T13:40:00.271Z,13292
2019-01-25T13:41:00.876Z,13428
2019-01-25T13:42:01.474Z,13204
2019-01-25T13:43:02.104Z,12744
2019-01-25T13:44:02.694Z,12336
2019-01-25T13:45:03.290Z,12328
2019-01-25T13:46:03.898Z,12768
2019-01-25T13:47:04.489Z,13604
2019-01-25T13:48:05.094Z,14560
2019-01-25T13:49:05.691Z,15108
2019-01-25T13:50:06.287Z,15240
2019-01-25T13:51:06.887Z,15408
2019-01-25T13:52:07.492Z,15848
2019-01-25T13:53:08.097Z,16040
2019-01-25T13:54:08.692Z,15804
2019-01-25T13:55:09.310Z,15496
2019-01-25T13:56:09.902Z,15460
2019-01-25T13:57:10.508Z,15748
2019-01-25T13:58:11.124Z,16300
2019-01-25T13:59:11.732Z,16776
2019-01-25T14:00:12.394Z,16884
2019-01-25T14:01:12.972Z,16556
2019-01-25T14:02:13.562Z,15804
2019-01-25T14:03:14.165Z,14588
2019-01-25T14:04:14.762Z,13288